createdAt,value
2023-11-19T00:00:37.116Z,28.90
2023-11-19T00:05:00.594Z,27.90
2023-11-19T00:09:05.295Z,28.10
2023-11-19T00:13:08.749Z,27.60
2023-11-19T00:17:12.146Z,26.50
2023-11-19T00:21:15.588Z,25.20
2023-11-19T00:25:26.786Z,29.00
2023-11-19T00:29:30.337Z,23.60
2023-11-19T00:33:33.696Z,26.50
2023-11-19T00:37:37.257Z,24.40
2023-11-19T00:41:41.488Z,28.40
2023-11-19T00:45:45.753Z,27.20
2023-11-19T00:49:52.305Z,28.90
2023-11-19T00:53:56.377Z,30.60
2023-11-19T00:57:59.725Z,28.70
2023-11-19T01:02:07.684Z,27.10
2023-11-19T01:06:12.214Z,30.30
2023-11-19T01:10:17.348Z,25.30
2023-11-19T01:14:22.276Z,31.80
2023-11-19T01:18:25.580Z,29.40
2023-11-19T01:22:29.060Z,31.50
2023-11-19T01:26:32.445Z,33.80
2023-11-19T01:30:35.815Z,32.60
2023-11-19T01:34:39.379Z,29.90
2023-11-19T01:38:42.977Z,32.00
2023-11-19T01:42:46.275Z,31.60
2023-11-19T01:46:51.187Z,31.40
2023-11-19T01:51:02.643Z,29.40
2023-11-19T01:55:10.100Z,33.30
2023-11-19T01:59:15.202Z,32.80
2023-11-19T02:03:18.942Z,31.30
2023-11-19T02:07:23.522Z,29.20
2023-11-19T02:11:30.717Z,30.30
2023-11-19T02:15:35.165Z,27.50
2023-11-19T02:19:39.524Z,26.60
2023-11-19T02:23:42.906Z,26.30
2023-11-19T02:28:00.981Z,27.90
2023-11-19T02:32:04.865Z,26.20
2023-11-19T02:36:09.710Z,29.50
2023-11-19T02:40:17.414Z,27.80
2023-11-19T02:44:20.946Z,30.70
2023-11-19T02:48:24.296Z,27.20
2023-11-19T02:52:27.892Z,25.50
2023-11-19T02:56:35.929Z,24.00
2023-11-19T03:00:49.080Z,25.10
2023-11-19T03:04:52.676Z,22.70
2023-11-19T03:08:57.138Z,22.00
2023-11-19T03:13:03.599Z,21.50
2023-11-19T03:17:07.997Z,24.20
2023-11-19T03:21:11.371Z,25.20
2023-11-19T03:25:14.774Z,25.70
2023-11-19T03:29:18.174Z,27.70
2023-11-19T03:33:21.535Z,25.30
2023-11-19T03:37:25.380Z,24.60
2023-11-19T03:41:28.767Z,25.30
2023-11-19T03:45:32.339Z,26.40
2023-11-19T03:49:35.914Z,26.70
2023-11-19T03:53:39.393Z,24.50
2023-11-19T03:57:42.871Z,24.70
2023-11-19T04:01:46.292Z,25.40
2023-11-19T04:05:49.753Z,25.40
2023-11-19T04:09:54.012Z,24.20
2023-11-19T04:13:57.945Z,23.10
2023-11-19T04:18:02.105Z,24.40
2023-11-19T04:22:05.854Z,25.50
2023-11-19T04:26:11.536Z,23.00
2023-11-19T04:30:15.747Z,22.90
2023-11-19T04:34:20.229Z,24.70
2023-11-19T04:38:23.709Z,25.60
2023-11-19T04:42:27.136Z,23.80
2023-11-19T04:46:31.309Z,25.50
2023-11-19T04:50:34.721Z,24.50
2023-11-19T04:54:43.864Z,23.70
2023-11-19T04:58:47.177Z,22.90
2023-11-19T05:02:50.799Z,21.60
2023-11-19T05:06:54.706Z,23.60
2023-11-19T05:10:59.026Z,20.30
2023-11-19T05:15:02.369Z,24.00
2023-11-19T05:19:05.756Z,21.80
2023-11-19T05:23:21.312Z,20.00
2023-11-19T05:27:25.233Z,21.90
2023-11-19T05:31:28.699Z,20.40
2023-11-19T05:35:32.107Z,22.50
2023-11-19T05:39:35.605Z,20.60
2023-11-19T05:43:42.010Z,18.20
2023-11-19T05:47:45.569Z,18.30
2023-11-19T05:51:49.131Z,19.30
2023-11-19T05:55:58.488Z,18.00
2023-11-19T06:00:01.758Z,17.00
2023-11-19T06:04:15.150Z,18.00
2023-11-19T06:08:18.582Z,15.60
2023-11-19T06:12:21.991Z,15.80
2023-11-19T06:16:26.442Z,16.30
2023-11-19T06:20:43.426Z,15.40
2023-11-19T06:24:47.491Z,16.90
2023-11-19T06:28:50.923Z,14.50
2023-11-19T06:32:54.383Z,17.10
2023-11-19T06:36:57.939Z,16.00
2023-11-19T06:41:01.511Z,14.80
2023-11-19T06:45:05.197Z,14.60
2023-11-19T06:49:11.322Z,16.20
2023-11-19T06:53:14.813Z,15.10
2023-11-19T06:57:18.264Z,17.00
2023-11-19T07:01:21.743Z,16.40
2023-11-19T07:05:25.319Z,19.00
2023-11-19T07:09:29.062Z,19.70
2023-11-19T07:13:32.492Z,19.60
2023-11-19T07:17:36.653Z,20.10
2023-11-19T07:21:45.238Z,18.70
2023-11-19T07:25:48.614Z,20.40
2023-11-19T07:29:53.225Z,15.80
2023-11-19T07:33:56.930Z,16.90
2023-11-19T07:38:00.330Z,18.00
2023-11-19T07:42:04.079Z,18.50
2023-11-19T07:46:12.489Z,14.80
2023-11-19T07:50:18.414Z,15.90
2023-11-19T07:54:22.827Z,17.40
2023-11-19T07:58:26.313Z,16.40
2023-11-19T08:02:30.351Z,15.80
2023-11-19T08:06:34.469Z,15.20
2023-11-19T08:10:37.980Z,13.10
2023-11-19T08:14:41.596Z,14.70
2023-11-19T08:18:45.536Z,14.20
2023-11-19T08:22:49.760Z,15.50
2023-11-19T08:31:00.308Z,15.80
2023-11-19T08:35:04.576Z,13.90
2023-11-19T08:39:10.003Z,16.20
2023-11-19T08:43:14.682Z,13.60
2023-11-19T08:47:22.054Z,13.20
2023-11-19T08:51:26.640Z,14.40
2023-11-19T08:55:30.151Z,14.30
2023-11-19T08:59:33.665Z,15.90
2023-11-19T09:03:38.424Z,14.30
2023-11-19T09:07:42.531Z,15.00
2023-11-19T09:11:46.035Z,15.70
2023-11-19T09:15:49.520Z,15.00
2023-11-19T09:19:53.905Z,14.70
2023-11-19T09:23:57.538Z,12.80
2023-11-19T09:28:01.471Z,13.00
2023-11-19T09:32:06.272Z,14.30
2023-11-19T09:36:15.161Z,13.50
2023-11-19T09:44:28.828Z,13.00
2023-11-19T09:48:34.598Z,15.50
2023-11-19T09:52:38.080Z,13.90
2023-11-19T09:56:42.262Z,12.90
2023-11-19T10:00:50.731Z,14.00
2023-11-19T10:05:00.925Z,13.20
2023-11-19T10:09:06.710Z,13.70
2023-11-19T10:13:10.396Z,14.90
2023-11-19T10:17:14.388Z,13.80
2023-11-19T10:21:21.416Z,14.60
2023-11-19T10:25:30.275Z,11.10
2023-11-19T10:33:37.170Z,13.70
2023-11-19T10:37:40.672Z,13.80
2023-11-19T10:41:44.098Z,15.40
2023-11-19T10:45:47.524Z,12.80
2023-11-19T10:49:51.307Z,10.50
2023-11-19T10:53:58.456Z,12.30
2023-11-19T10:59:00.489Z,10.10
2023-11-19T11:03:17.426Z,11.70
2023-11-19T11:07:32.416Z,10.70
2023-11-19T11:11:44.972Z,12.20
2023-11-19T11:15:49.592Z,11.50
2023-11-19T11:19:54.540Z,11.80
2023-11-19T11:24:10.080Z,9.70
2023-11-19T11:28:54.683Z,11.60
2023-11-19T11:33:13.198Z,10.90
2023-11-19T11:37:49.653Z,11.50
2023-11-19T11:42:20.014Z,12.10
2023-11-19T11:46:39.435Z,12.10
2023-11-19T11:51:00.435Z,12.80
2023-11-19T11:55:25.171Z,12.00
2023-11-19T11:59:43.855Z,12.00
2023-11-19T12:03:48.064Z,11.00
2023-11-19T12:08:08.340Z,11.90
2023-11-19T12:12:19.565Z,12.60
2023-11-19T12:16:23.545Z,13.80
2023-11-19T12:20:34.686Z,12.70
2023-11-19T12:24:38.672Z,11.80
2023-11-19T12:28:43.104Z,12.80
2023-11-19T12:32:47.770Z,12.30
2023-11-19T12:36:52.994Z,13.20
2023-11-19T12:41:14.572Z,12.10
2023-11-19T12:45:18.988Z,13.30
2023-11-19T12:49:24.795Z,12.10
2023-11-19T12:53:31.177Z,13.30
2023-11-19T12:57:44.423Z,13.70
2023-11-19T13:02:01.866Z,14.00
2023-11-19T13:06:15.570Z,14.70
2023-11-19T13:10:21.354Z,13.40
2023-11-19T13:14:26.120Z,14.60
2023-11-19T13:18:44.969Z,12.40
2023-11-19T13:23:03.590Z,16.10
2023-11-19T13:27:08.062Z,12.10
2023-11-19T13:31:20.009Z,13.40
2023-11-19T13:35:25.107Z,12.90
2023-11-19T13:39:29.062Z,14.20
2023-11-19T13:43:33.960Z,14.90
2023-11-19T13:47:38.480Z,12.90
2023-11-19T13:51:47.277Z,15.00
2023-11-19T13:55:51.524Z,10.70
2023-11-19T14:00:01.266Z,15.10
2023-11-19T14:04:05.016Z,15.70
2023-11-19T14:08:26.220Z,15.10
2023-11-19T14:12:36.221Z,13.20
2023-11-19T14:16:42.803Z,19.10
2023-11-19T14:20:49.385Z,15.70
2023-11-19T14:24:53.609Z,15.50
2023-11-19T14:29:07.149Z,14.20
2023-11-19T14:33:16.557Z,13.40
2023-11-19T14:37:22.442Z,14.10
2023-11-19T15:33:36.121Z,15.20
2023-11-19T15:38:09.120Z,16.30
2023-11-19T15:48:02.748Z,15.20
2023-11-19T15:53:01.057Z,18.10
2023-11-19T16:18:34.226Z,16.40
2023-11-19T16:22:42.428Z,18.10
2023-11-19T16:26:45.987Z,20.30
2023-11-19T16:30:49.639Z,19.60
2023-11-19T16:34:53.935Z,20.10
2023-11-19T16:39:16.134Z,20.20
2023-11-19T16:43:20.140Z,17.80
2023-11-19T16:47:23.760Z,19.20
2023-11-19T16:51:27.316Z,18.60
2023-11-19T16:55:31.679Z,18.40
2023-11-19T16:59:35.089Z,19.70
2023-11-19T17:03:39.702Z,20.40
2023-11-19T17:07:43.645Z,21.60
2023-11-19T17:11:47.092Z,20.40
2023-11-19T17:15:50.502Z,20.20
2023-11-19T17:19:53.852Z,20.20
2023-11-19T17:23:57.583Z,22.20
2023-11-19T17:28:01.204Z,21.20
2023-11-19T17:32:05.390Z,19.00
2023-11-19T17:36:09.404Z,20.20
2023-11-19T17:40:14.874Z,21.70
2023-11-19T17:44:18.400Z,18.30
2023-11-19T17:48:22.894Z,21.00
2023-11-19T17:52:26.318Z,18.40
2023-11-19T17:56:29.669Z,17.90
2023-11-19T18:00:33.138Z,19.80
2023-11-19T18:04:39.359Z,18.70
2023-11-19T18:08:44.433Z,17.40
2023-11-19T18:12:47.885Z,17.60
2023-11-19T18:16:51.437Z,16.80
2023-11-19T18:20:55.217Z,15.50
2023-11-19T18:24:59.946Z,14.20
2023-11-19T18:29:03.379Z,16.30
2023-11-19T18:33:06.873Z,18.10
2023-11-19T18:37:10.601Z,15.00
2023-11-19T18:41:16.865Z,15.30
2023-11-19T18:45:23.319Z,16.50
2023-11-19T18:49:28.060Z,18.10
2023-11-19T18:53:31.828Z,14.60
2023-11-19T18:57:35.242Z,16.10
2023-11-19T19:01:39.272Z,16.30
2023-11-19T19:05:43.274Z,14.90
2023-11-19T19:09:51.075Z,15.60
2023-11-19T19:13:54.342Z,13.30
2023-11-19T19:17:58.385Z,14.60
2023-11-19T19:22:01.903Z,14.90
2023-11-19T19:26:05.752Z,16.30
2023-11-19T19:30:10.057Z,14.20
2023-11-19T19:34:13.806Z,13.20
2023-11-19T19:38:17.406Z,15.70
2023-11-19T19:42:20.900Z,15.20
2023-11-19T19:46:25.979Z,15.10
2023-11-19T19:50:29.413Z,15.40
2023-11-19T19:54:35.429Z,16.60
2023-11-19T19:58:41.156Z,17.20
2023-11-19T20:02:45.676Z,16.70
2023-11-19T20:06:50.817Z,17.50
2023-11-19T20:10:54.828Z,18.20
2023-11-19T20:15:01.347Z,16.00
2023-11-19T20:19:04.860Z,18.80
2023-11-19T20:23:08.466Z,16.20
2023-11-19T20:27:17.574Z,15.50
2023-11-19T20:31:20.955Z,18.30
2023-11-19T20:35:25.356Z,17.00
2023-11-19T20:39:29.937Z,17.70
2023-11-19T20:43:33.210Z,15.60
2023-11-19T20:47:38.188Z,17.40
2023-11-19T20:51:41.595Z,19.00
2023-11-19T20:55:46.465Z,18.30
2023-11-19T20:59:49.809Z,16.20
2023-11-19T21:03:53.098Z,17.20
2023-11-19T21:07:56.444Z,17.20
2023-11-19T21:12:02.063Z,15.60
2023-11-19T21:16:08.857Z,16.80
2023-11-19T21:20:13.241Z,14.60
2023-11-19T21:24:16.774Z,15.90
2023-11-19T21:28:20.133Z,15.60
2023-11-19T21:32:23.453Z,14.60
2023-11-19T21:36:26.786Z,14.40
2023-11-19T21:40:30.082Z,15.20
2023-11-19T21:44:33.386Z,14.30
2023-11-19T21:48:39.033Z,14.90
2023-11-19T21:52:42.426Z,14.90
2023-11-19T21:56:45.756Z,15.90
2023-11-19T22:00:49.196Z,14.10
2023-11-19T22:04:53.112Z,12.00
2023-11-19T22:08:56.506Z,14.50
2023-11-19T22:12:59.854Z,13.40
2023-11-19T22:17:04.866Z,12.10
2023-11-19T22:21:08.170Z,12.60
2023-11-19T22:25:11.588Z,13.10
2023-11-19T22:29:14.937Z,12.60
2023-11-19T22:33:18.261Z,13.90
2023-11-19T22:37:21.600Z,13.60
2023-11-19T22:41:25.015Z,13.70
2023-11-19T22:45:28.510Z,14.20
2023-11-19T22:49:32.139Z,15.40
2023-11-19T22:53:35.504Z,15.30
2023-11-19T22:57:59.752Z,14.20
2023-11-19T23:02:02.213Z,13.90
2023-11-19T23:06:05.907Z,14.90
2023-11-19T23:14:16.175Z,14.80
2023-11-19T23:18:19.800Z,14.70
2023-11-19T23:26:30.464Z,13.60
2023-11-19T23:30:37.218Z,15.90
2023-11-19T23:38:46.734Z,13.40
2023-11-19T23:42:50.066Z,15.40
2023-11-19T23:46:53.476Z,13.30
2023-11-19T23:51:00.428Z,14.50
2023-11-19T23:55:04.418Z,14.50
2023-11-19T23:59:08.908Z,12.70
